Flight Track Log - Related Links

Times and Time Zones

All times are in EDT time to prevent confusion due to time zone crossing. See the SWA601 flight status page for this flight to view local times or setup timezone preferences in your user account.


Time Position Orientation Groundspeed Altitude Reporting Facility
EDT Latitude Longitude Course Direction KTS MPH feet Rate Location/Type
Sun 01:11:36 PM 40.8067 -111.9794 354° North 174 200 4,900  Level Salt Lake Center
Sun 01:12:55 PM 40.8839 -111.9900 354° North 242 278 7,400 1,918 Climbing Salt Lake Center
Sun 01:13:13 PM 40.8986 -111.9900 360° North 231 266 8,000 2,060 Climbing Salt Lake Center
Sun 01:14:02 PM 40.9694 -111.9978 355° North 280 322 9,700 1,839 Climbing Salt Lake Center
Sun 01:14:15 PM 40.9769 -112.0006 344° North 294 338 9,900 2,368 Climbing Salt Lake Center
Sun 01:15:18 PM 41.0569 -111.9822 10° North 307 353 12,700 2,208 Climbing Salt Lake Center
Sun 01:16:20 PM 41.0492 -111.8667 95° East 333 383 14,500 2,129 Climbing Salt Lake Center
Sun 01:17:22 PM 41.0106 -111.7372 112° Southeast 343 395 17,100 2,274 Climbing Salt Lake Center
Sun 01:18:24 PM 40.9903 -111.6089 102° East 360 414 19,200 2,081 Climbing Salt Lake Center
Sun 01:19:26 PM 40.9781 -111.4739 97° East 369 425 21,400 1,694 Climbing Salt Lake Center
Sun 01:20:28 PM 40.9625 -111.3017 97° East 397 457 22,700 1,258 Climbing Salt Lake Center
Sun 01:21:30 PM 40.9478 -111.1383 97° East 444 511 24,000 1,403 Climbing Salt Lake Center
Sun 01:22:32 PM 40.9322 -110.9719 97° East 455 524 25,600 1,452 Climbing Salt Lake Center
Sun 01:23:34 PM 40.9147 -110.8019 98° East 465 535 27,000 1,500 Climbing Salt Lake Center
Sun 01:24:36 PM 40.8986 -110.6286 97° East 474 545 28,700 1,742 Climbing Salt Lake Center
Sun 01:25:38 PM 40.8786 -110.4275 97° East 474 545 30,600 1,548 Climbing Salt Lake Center
Sun 01:26:40 PM 40.8606 -110.2633 98° East 474 545 31,900 1,355 Climbing Salt Lake Center
Sun 01:27:42 PM 40.8408 -110.0722 98° East 473 544 33,400 1,344 Climbing Salt Lake Center
Sun 01:28:45 PM 40.8250 -109.9147 98° East 474 545 34,700 1,248 Climbing Salt Lake Center
Sun 01:29:47 PM 40.8072 -109.7467 98° East 469 540 36,000 1,113 Climbing Salt Lake Center
Sun 01:30:49 PM 40.7858 -109.5450 98° East 465 535 37,000 484 Climbing Salt Lake Center
Sun 01:31:51 PM 40.7678 -109.3764 98° East 465 535 37,000  Level Salt Lake Center
Sun 01:32:53 PM 40.7489 -109.2086 98° East 465 535 37,000  Level Salt Lake Center
Sun 01:33:55 PM 40.7286 -109.0281 98° East 464 534 37,000  Level Salt Lake Center
Sun 01:34:57 PM 40.7156 -108.8694 96° East 461 531 37,000  Level Salt Lake Center
Sun 01:35:59 PM 40.7003 -108.6839 96° East 460 529 37,000  Level Salt Lake Center
Sun 01:37:01 PM 40.6858 -108.5269 97° East 458 527 37,000  Level Salt Lake Center
Sun 01:38:03 PM 40.6692 -108.3419 97° East 457 526 37,000  Level Salt Lake Center
Sun 01:39:05 PM 40.6550 -108.1828 97° East 458 527 37,000  Level Salt Lake Center
Sun 01:40:07 PM 40.6375 -107.9947 97° East 460 529 37,000  Level Salt Lake Center
Sun 01:41:09 PM 40.6222 -107.8350 97° East 460 529 37,000  Level Salt Lake Center
Sun 01:42:11 PM 40.6036 -107.6494 97° East 460 529 37,000  Level Salt Lake Center
Sun 01:43:14 PM 40.5881 -107.4881 97° East 461 531 37,000 -583 Level Salt Lake Center
Sun 01:44:35 PM 40.5672 -107.2683 97° East 462 532 35,600 -1,049 Descending Denver Center
Sun 01:45:37 PM 40.5486 -107.0764 97° East 467 537 34,500 -968 Descending Denver Center
Sun 01:46:39 PM 40.5317 -106.9039 97° East 471 542 33,600 -871 Descending Denver Center
Sun 01:47:41 PM 40.5128 -106.7292 98° East 478 550 32,700 -919 Descending Denver Center
Sun 01:48:43 PM 40.4942 -106.5528 98° East 482 555 31,700 -968 Descending Denver Center
Sun 01:49:45 PM 40.4736 -106.3650 98° East 489 563 30,700 -960 Descending Denver Center
Sun 01:50:48 PM 40.4558 -106.1889 98° East 489 563 29,700 -960 Descending Denver Center
Sun 01:51:50 PM 40.4328 -105.9944 99° East 489 563 28,700 -1,597 Descending Denver Center
Sun 01:52:52 PM 40.4142 -105.8192 98° East 488 562 26,400 -2,081 Descending Denver Center
Sun 01:53:54 PM 40.3931 -105.6514 99° East 472 543 24,400 -2,081 Descending Denver Center
Sun 01:54:56 PM 40.3672 -105.4967 102° East 440 506 22,100 -2,032 Descending Denver Center
Sun 01:55:58 PM 40.3058 -105.3553 120° Southeast 399 459 20,200 -1,839 Descending Denver Center
Sun 01:57:00 PM 40.2356 -105.2456 130° Southeast 366 421 18,300 -1,597 Descending Denver Center
Sun 01:58:02 PM 40.1744 -105.1508 130° Southeast 343 395 16,900 -629 Descending Denver Center
Sun 01:59:04 PM 40.1117 -105.0531 130° Southeast 328 377 17,000 -435 Climbing Denver Center
Sun 02:00:06 PM 40.0519 -104.9592 130° Southeast 335 386 16,000 -1,392 Descending Denver Center
Sun 02:01:09 PM 39.9883 -104.8608 130° Southeast 332 382 14,100 -1,728 Descending Denver Center
Sun 02:02:11 PM 39.9164 -104.8044 149° Southeast 322 371 12,400 -1,403 Descending Denver Center
Sun 02:03:13 PM 39.8275 -104.8089 182° South 301 346 11,200 -677 Descending Denver Center
Sun 02:04:15 PM 39.7561 -104.8103 181° South 260 299 11,000 -242 Descending Denver Center
Sun 02:05:17 PM 39.6861 -104.8114 181° South 237 273 10,700 -484 Descending Denver Center
Sun 02:06:19 PM 39.6261 -104.8067 177° South 219 252 10,000 -339 Descending Denver Center
Sun 02:07:21 PM 39.5650 -104.7975 173° South 208 239 10,000  Level Denver Center
Sun 02:08:23 PM 39.5486 -104.7300 107° East 225 259 10,000 -435 Level Denver Center
Sun 02:09:25 PM 39.6125 -104.6897 26° Northeast 243 280 9,100 -532 Descending Denver Center
Sun 02:10:27 PM 39.6761 -104.6906 359° North 233 268 8,900 -581 Descending Denver Center
Sun 02:11:29 PM 39.7422 -104.6886 North 225 259 7,900 -1,104 Descending Denver Center
Sun 02:12:32 PM 39.8003 -104.6883 360° North 213 245 6,600 -1,056 Descending Denver Center
Sun 02:13:34 PM 39.8469 -104.6869 North 163 188 5,700 -871 Descending Denver Center
Sun 02:15:00 PM 39.8500 -104.6667 North  Level FlightAware Approximate
Sun 02:22:00 PM 39.8617 -104.6732 North  Level Estimated
Sun 02:23:00 PM 39.8617 -104.6732 North  Level Estimated
Sun 02:24:00 PM 39.8617 -104.6732 North  Level Estimated

Login

Don't have an account? Register now (free) for customized features, flight alerts, and more!